Time;durP1;ratioP1;P1;durP2;ratioP2;P2;SDS_P1;SDS_P2;PMS_P1;PMS_P2;Temp;Humidity;BMP_temperature;BMP_pressure;BME280_temperature;BME280_humidity;BME280_pressure;Samples;Min_cycle;Max_cycle;Signal;HPM_P1;HPM_P2
2022/06/16 00:01:44;;;;;;;3.28;2.10;;;12.90;99.90;;;;;;5077030;28;20055;-70
2022/06/16 00:04:09;;;;;;;2.80;1.52;;;12.90;99.90;;;;;;5076785;28;20044;-69
2022/06/16 00:06:35;;;;;;;3.03;1.55;;;12.90;99.90;;;;;;5076788;28;20040;-69
2022/06/16 00:09:01;;;;;;;2.25;1.70;;;12.90;99.90;;;;;;5077042;28;20047;-69
2022/06/16 00:11:27;;;;;;;3.40;1.60;;;12.90;99.90;;;;;;5076444;28;20055;-70
2022/06/16 00:13:53;;;;;;;2.80;1.70;;;12.90;99.90;;;;;;5060256;28;20044;-69
2022/06/16 00:16:23;;;;;;;2.50;1.40;;;12.90;99.90;;;;;;5076525;28;20051;-69
2022/06/16 00:18:49;;;;;;;3.05;1.50;;;12.80;99.90;;;;;;5076453;28;20040;-70
2022/06/16 00:21:16;;;;;;;3.25;1.50;;;12.70;99.90;;;;;;5059812;28;20044;-69
2022/06/16 00:23:42;;;;;;;1.75;1.33;;;12.80;99.90;;;;;;5059747;28;20131;-69
2022/06/16 00:26:20;;;;;;;1.20;1.10;;;12.70;99.90;;;;;;5076885;28;20475;-69
2022/06/16 00:28:46;;;;;;;3.92;1.60;;;12.60;99.90;;;;;;5059979;28;20566;-69
2022/06/16 00:31:13;;;;;;;3.70;1.77;;;12.60;99.90;;;;;;5059989;28;20043;-69
2022/06/16 00:33:40;;;;;;;2.92;1.60;;;12.60;99.90;;;;;;5076149;28;20047;-69
2022/06/16 00:36:06;;;;;;;2.40;1.35;;;12.50;99.90;;;;;;5076727;28;20036;-69
2022/06/16 00:38:32;;;;;;;3.72;1.63;;;12.50;99.90;;;;;;5076426;28;20053;-69
2022/06/16 00:40:58;;;;;;;3.33;1.83;;;12.50;99.90;;;;;;5059451;28;20043;-69
2022/06/16 00:43:24;;;;;;;2.58;1.42;;;12.50;99.90;;;;;;5059804;28;20040;-70
2022/06/16 00:46:03;;;;;;;5.57;1.88;;;13.30;99.90;;;;;;5059228;28;20036;-69
2022/06/16 00:48:31;;;;;;;3.38;2.00;;;12.50;99.90;;;;;;5075955;28;20403;-69
2022/06/16 00:51:08;;;;;;;3.47;1.70;;;12.50;99.90;;;;;;5075786;28;20039;-69
2022/06/16 00:53:35;;;;;;;4.45;1.95;;;12.50;99.90;;;;;;5075967;28;20514;-69
2022/06/16 00:56:01;;;;;;;2.38;1.58;;;12.50;99.90;;;;;;5059143;28;20043;-69
2022/06/16 00:58:29;;;;;;;3.05;1.83;;;12.40;99.90;;;;;;5058923;28;20032;-69
2022/06/16 01:00:55;;;;;;;3.03;1.95;;;12.40;99.90;;;;;;5058901;28;20059;-69
2022/06/16 01:06:21;;;;;;;2.13;1.67;;;12.30;99.90;;;;;;5075635;28;20036;-69
2022/06/16 01:08:50;;;;;;;2.97;1.90;;;12.20;99.90;;;;;;5075474;28;20079;-69
2022/06/16 01:14:38;;;;;;;3.63;1.65;;;12.10;99.90;;;;;;5075841;28;20633;-69
2022/06/16 01:17:16;;;;;;;3.50;1.83;;;12.20;99.90;;;;;;5074084;28;20204;-69
2022/06/16 01:20:14;;;;;;;3.85;1.75;;;12.20;99.90;;;;;;5075687;28;20048;-69
2022/06/16 01:23:40;;;;;;;7.72;2.13;;;12.10;99.90;;;;;;5052219;28;20138;-69
2022/06/16 01:26:49;;;;;;;4.80;1.60;;;12.10;99.90;;;;;;4959627;28;20073;-69
2022/06/16 01:29:21;;;;;;;2.80;1.75;;;12.20;99.90;;;;;;5075319;28;20048;-69
2022/06/16 01:32:01;;;;;;;3.92;2.20;;;12.10;99.90;;;;;;5075215;28;20070;-69
2022/06/16 01:34:33;;;;;;;3.03;1.85;;;12.10;99.90;;;;;;5075584;28;20479;-69
2022/06/16 01:37:17;;;;;;;3.17;1.90;;;12.10;99.90;;;;;;5058449;28;20040;-69
2022/06/16 01:39:56;;;;;;;3.28;2.08;;;12.10;99.90;;;;;;5075310;28;20047;-69
2022/06/16 01:42:54;;;;;;;3.38;1.65;;;12.10;99.90;;;;;;5075167;28;20071;-69
2022/06/16 01:45:32;;;;;;;4.63;1.92;;;12.10;99.90;;;;;;5004328;28;20516;-69
2022/06/16 01:47:58;;;;;;;3.72;1.67;;;12.10;99.90;;;;;;5074686;28;20060;-69
2022/06/16 01:50:39;;;;;;;4.55;2.00;;;12.10;99.90;;;;;;5074842;28;20189;-69
2022/06/16 01:53:09;;;;;;;3.55;2.20;;;12.10;99.90;;;;;;5074776;28;20431;-69
2022/06/16 01:55:40;;;;;;;2.63;1.83;;;12.90;99.90;;;;;;5057705;28;20122;-69
2022/06/16 01:58:24;;;;;;;5.10;2.00;;;12.20;99.90;;;;;;5074665;28;20071;-69
2022/06/16 02:00:53;;;;;;;2.50;1.75;;;12.20;99.90;;;;;;5074586;28;20040;-69
2022/06/16 02:03:26;;;;;;;3.53;1.85;;;12.10;99.90;;;;;;5074698;28;20040;-70
2022/06/16 02:05:58;;;;;;;5.30;2.00;;;12.40;99.90;;;;;;5074878;28;20051;-69
2022/06/16 02:08:34;;;;;;;5.18;1.88;;;12.20;99.90;;;;;;5074603;28;20046;-69
2022/06/16 02:11:14;;;;;;;2.60;1.77;;;12.20;99.90;;;;;;5074660;28;20043;-70
2022/06/16 02:13:48;;;;;;;3.60;2.10;;;12.20;99.90;;;;;;5075099;28;20044;-69
2022/06/16 02:16:27;;;;;;;6.85;2.35;;;12.20;99.90;;;;;;5074767;28;20044;-70
2022/06/16 02:18:54;;;;;;;3.65;1.98;;;12.20;99.90;;;;;;5074619;28;20062;-69
2022/06/16 02:21:42;;;;;;;4.28;2.38;;;11.90;99.90;;;;;;5041766;28;20434;-69
2022/06/16 02:24:13;;;;;;;4.82;2.88;;;12.20;99.90;;;;;;5057925;28;20403;-69
2022/06/16 02:26:38;;;;;;;6.30;2.42;;;12.20;99.90;;;;;;5074673;28;20048;-69
2022/06/16 02:29:21;;;;;;;4.55;2.30;;;12.20;99.90;;;;;;5058306;28;20047;-69
2022/06/16 02:32:19;;;;;;;4.13;2.53;;;12.40;99.90;;;;;;5074561;28;20491;-69
2022/06/16 02:35:02;;;;;;;4.15;1.90;;;12.20;99.90;;;;;;5074782;28;20044;-69
2022/06/16 02:38:18;;;;;;;4.13;2.33;;;12.30;99.90;;;;;;5074870;28;20047;-69
2022/06/16 02:40:49;;;;;;;5.40;2.22;;;12.30;99.90;;;;;;4974606;28;20634;-69
2022/06/16 02:43:46;;;;;;;3.45;2.30;;;12.30;99.90;;;;;;5074977;28;20566;-69
2022/06/16 02:46:30;;;;;;;4.25;2.33;;;12.30;99.90;;;;;;5074634;28;20062;-69
2022/06/16 02:49:29;;;;;;;2.78;1.88;;;12.20;99.90;;;;;;5074284;28;20050;-69
2022/06/16 02:52:36;;;;;;;3.90;1.88;;;12.30;99.90;;;;;;5074339;28;20067;-69
2022/06/16 02:55:24;;;;;;;5.82;2.53;;;12.30;99.90;;;;;;5074197;28;20127;-69
2022/06/16 02:57:59;;;;;;;2.60;2.13;;;12.30;99.90;;;;;;5074584;28;20032;-69
2022/06/16 03:00:31;;;;;;;3.63;1.85;;;12.20;99.90;;;;;;5057529;28;20400;-69
2022/06/16 03:02:56;;;;;;;4.75;2.22;;;12.20;99.90;;;;;;5074300;28;20117;-69
2022/06/16 03:05:22;;;;;;;4.50;2.50;;;12.10;99.90;;;;;;5057977;28;20435;-69
2022/06/16 03:07:48;;;;;;;3.40;2.35;;;12.10;99.90;;;;;;5075576;28;20128;-69
2022/06/16 03:10:50;;;;;;;3.67;1.95;;;12.00;99.90;;;;;;5078335;28;20510;-69
2022/06/16 03:13:04;;;;;;;8.05;2.15;;;12.00;99.90;;;;;;5077643;28;20342;-69
2022/06/16 03:15:30;;;;;;;6.60;2.42;;;12.00;99.90;;;;;;5078082;28;20044;-69
2022/06/16 03:17:55;;;;;;;7.05;2.50;;;12.10;99.90;;;;;;5044555;28;20047;-69
2022/06/16 03:20:21;;;;;;;6.55;2.55;;;12.10;99.90;;;;;;5061227;28;20085;-69
2022/06/16 03:22:46;;;;;;;3.85;2.47;;;12.10;99.90;;;;;;5077679;28;20047;-69
2022/06/16 03:25:12;;;;;;;5.72;2.20;;;12.10;99.90;;;;;;5078027;28;20040;-70
2022/06/16 03:27:38;;;;;;;4.50;2.28;;;12.10;99.90;;;;;;5077565;28;20131;-69
2022/06/16 03:30:04;;;;;;;4.13;2.17;;;12.30;99.90;;;;;;5044407;28;20494;-69
2022/06/16 03:32:30;;;;;;;4.38;2.10;;;12.10;99.90;;;;;;5060996;28;20036;-69
2022/06/16 03:34:55;;;;;;;3.35;1.85;;;12.10;99.90;;;;;;5060817;28;20046;-69
2022/06/16 03:37:23;;;;;;;6.30;2.45;;;12.10;99.90;;;;;;5061104;28;20051;-69
2022/06/16 03:39:49;;;;;;;3.03;1.75;;;12.20;99.90;;;;;;5077452;28;20153;-69
2022/06/16 03:42:15;;;;;;;3.72;1.85;;;12.20;99.90;;;;;;5077345;28;20476;-70
2022/06/16 03:44:41;;;;;;;6.13;1.88;;;12.20;99.90;;;;;;5060698;28;20071;-70
2022/06/16 03:47:06;;;;;;;5.50;2.17;;;12.20;99.90;;;;;;5077643;28;20032;-69
2022/06/16 03:49:32;;;;;;;4.38;1.98;;;12.20;99.90;;;;;;5077125;28;20048;-69
2022/06/16 03:51:58;;;;;;;3.78;1.70;;;12.30;99.90;;;;;;5060768;28;20515;-69
2022/06/16 03:54:23;;;;;;;3.03;1.90;;;12.30;99.90;;;;;;5060755;28;20135;-69
2022/06/16 03:56:49;;;;;;;4.13;2.47;;;12.40;99.90;;;;;;5077270;28;20040;-69
2022/06/16 03:59:15;;;;;;;4.60;2.15;;;12.30;99.90;;;;;;5077383;28;20047;-69
2022/06/16 04:01:40;;;;;;;4.95;2.22;;;12.40;99.90;;;;;;5076984;28;20123;-69
2022/06/16 04:04:07;;;;;;;5.70;2.08;;;12.40;99.90;;;;;;5077057;28;20042;-69
2022/06/16 04:06:35;;;;;;;3.03;1.90;;;12.40;99.90;;;;;;5076964;28;20478;-69
2022/06/16 04:09:02;;;;;;;2.85;1.50;;;12.40;99.90;;;;;;5076881;28;20035;-69
2022/06/16 04:11:28;;;;;;;6.72;1.67;;;12.40;99.90;;;;;;5060246;28;20044;-69
2022/06/16 04:13:56;;;;;;;6.00;2.20;;;12.40;99.90;;;;;;5059921;28;20122;-69
2022/06/16 04:16:22;;;;;;;3.80;2.30;;;12.50;99.90;;;;;;5076786;28;20040;-69
2022/06/16 04:18:47;;;;;;;3.45;1.65;;;12.40;99.90;;;;;;5075864;28;20062;-69
2022/06/16 04:21:13;;;;;;;5.75;1.95;;;12.40;99.90;;;;;;5060044;28;20094;-70
2022/06/16 04:23:39;;;;;;;6.32;1.95;;;12.50;99.90;;;;;;5076698;28;20392;-69
2022/06/16 04:26:05;;;;;;;6.55;1.90;;;12.50;99.90;;;;;;5076534;28;20480;-69
2022/06/16 04:28:31;;;;;;;3.05;1.80;;;12.60;99.90;;;;;;5076632;28;20391;-69
2022/06/16 04:30:57;;;;;;;3.15;2.10;;;12.70;99.90;;;;;;5076229;28;20036;-69
2022/06/16 04:33:24;;;;;;;6.88;2.20;;;12.70;99.90;;;;;;5076226;28;20128;-69
2022/06/16 04:35:50;;;;;;;2.45;1.60;;;12.90;99.90;;;;;;5076159;28;20051;-69
2022/06/16 04:38:16;;;;;;;4.00;2.47;;;13.00;99.90;;;;;;5059541;28;20032;-70
2022/06/16 04:40:41;;;;;;;3.22;1.70;;;13.10;99.90;;;;;;5059742;28;20036;-69
2022/06/16 04:43:07;;;;;;;3.03;1.77;;;13.20;99.90;;;;;;5059541;28;20047;-69
2022/06/16 04:45:33;;;;;;;2.35;1.60;;;13.30;99.90;;;;;;5059462;28;20054;-69
2022/06/16 04:47:58;;;;;;;3.67;1.92;;;13.40;99.90;;;;;;5075768;28;20569;-69
2022/06/16 04:50:24;;;;;;;4.97;1.60;;;13.50;99.90;;;;;;5075964;28;20090;-69
2022/06/16 04:52:50;;;;;;;3.15;1.52;;;13.60;99.90;;;;;;5075821;28;20076;-69
2022/06/16 04:55:16;;;;;;;4.15;1.65;;;13.70;99.90;;;;;;5059272;28;20395;-72
2022/06/16 04:57:42;;;;;;;1.88;1.48;;;13.80;99.90;;;;;;5059393;28;20119;-69
2022/06/16 05:00:11;;;;;;;2.88;1.55;;;13.90;99.90;;;;;;5059476;28;20439;-69
2022/06/16 05:02:37;;;;;;;2.35;1.83;;;13.90;99.90;;;;;;5075689;28;20040;-69
2022/06/16 05:05:03;;;;;;;2.80;1.77;;;14.10;99.90;;;;;;5075852;28;20411;-69
2022/06/16 05:07:29;;;;;;;3.42;1.50;;;14.10;99.90;;;;;;5075611;28;20558;-69
2022/06/16 05:09:54;;;;;;;2.70;1.30;;;14.20;99.90;;;;;;5059200;28;20036;-69
2022/06/16 05:12:20;;;;;;;2.17;1.40;;;14.20;99.90;;;;;;5075631;28;20093;-70
2022/06/16 05:14:46;;;;;;;3.13;1.50;;;14.40;99.90;;;;;;5058954;28;20032;-69
2022/06/16 05:17:12;;;;;;;3.63;1.33;;;14.50;99.90;;;;;;5059247;28;20051;-69
2022/06/16 05:19:38;;;;;;;2.33;1.55;;;14.60;99.90;;;;;;5059002;28;20063;-69
2022/06/16 05:22:05;;;;;;;5.32;1.58;;;14.60;99.90;;;;;;5059051;28;20044;-69
2022/06/16 05:24:31;;;;;;;3.28;1.17;;;14.70;99.90;;;;;;5058621;28;20046;-69
2022/06/16 05:26:57;;;;;;;5.90;1.48;;;14.80;99.90;;;;;;5058584;28;20044;-69
2022/06/16 05:29:23;;;;;;;1.00;0.90;;;14.80;99.90;;;;;;5075475;28;20075;-69
2022/06/16 05:31:49;;;;;;;1.88;1.10;;;14.90;99.90;;;;;;5058393;28;20079;-69
2022/06/16 05:34:15;;;;;;;2.00;1.10;;;14.80;99.90;;;;;;5058685;28;20071;-69
2022/06/16 05:36:43;;;;;;;4.88;1.35;;;14.90;99.90;;;;;;5058422;28;20040;-69
2022/06/16 05:39:09;;;;;;;3.28;1.00;;;14.90;99.90;;;;;;5075100;28;20093;-69
2022/06/16 05:41:35;;;;;;;4.22;1.35;;;15.10;99.90;;;;;;5074770;28;20403;-70
2022/06/16 05:44:00;;;;;;;3.40;1.30;;;13.40;99.90;;;;;;5075388;28;20487;-70
2022/06/16 05:46:27;;;;;;;4.03;1.70;;;15.10;99.90;;;;;;5075109;28;20097;-69
2022/06/16 05:48:53;;;;;;;3.38;1.65;;;15.20;99.90;;;;;;5074923;28;20090;-71
2022/06/16 05:51:19;;;;;;;2.17;1.17;;;15.20;99.90;;;;;;5041588;28;20075;-70
2022/06/16 05:53:45;;;;;;;3.75;1.88;;;15.20;99.90;;;;;;5041983;28;20047;-69
2022/06/16 05:56:12;;;;;;;3.22;2.30;;;15.20;99.90;;;;;;5075331;28;20040;-69
2022/06/16 05:58:38;;;;;;;4.53;2.00;;;15.30;99.90;;;;;;5058062;28;20089;-68
2022/06/16 06:01:04;;;;;;;4.18;2.03;;;15.30;99.90;;;;;;5074781;28;20130;-68
2022/06/16 06:03:30;;;;;;;2.22;1.55;;;15.40;99.90;;;;;;5074750;28;20487;-69
2022/06/16 06:05:58;;;;;;;3.13;1.48;;;15.50;99.90;;;;;;5058271;28;20153;-68
2022/06/16 06:16:48;;;;;;;2.17;1.08;;;15.50;99.90;;;;;;5074415;28;20078;-70
2022/06/16 06:19:24;;;;;;;1.33;1.02;;;15.50;99.90;;;;;;5074523;28;20436;-71
2022/06/16 06:22:02;;;;;;;3.55;0.95;;;15.70;99.90;;;;;;5074277;28;20047;-70
2022/06/16 06:24:32;;;;;;;1.90;1.00;;;15.80;99.90;;;;;;5057774;28;20062;-70
2022/06/16 06:27:02;;;;;;;2.05;1.00;;;16.00;99.90;;;;;;5074211;28;20044;-71
2022/06/16 06:29:28;;;;;;;0.80;0.65;;;16.10;99.90;;;;;;5074294;28;20104;-70
2022/06/16 06:31:53;;;;;;;0.95;0.75;;;16.40;99.90;;;;;;5074183;28;20048;-70
2022/06/16 06:34:19;;;;;;;2.33;1.08;;;16.50;99.90;;;;;;5057633;28;20083;-70
2022/06/16 06:36:45;;;;;;;2.83;0.73;;;16.70;99.90;;;;;;5074676;28;20051;-70
2022/06/16 06:39:12;;;;;;;0.70;0.60;;;16.80;99.90;;;;;;5074301;28;20118;-71
2022/06/16 06:41:38;;;;;;;1.00;0.90;;;16.90;99.90;;;;;;5057261;28;20040;-71
2022/06/16 06:44:04;;;;;;;2.05;0.63;;;17.10;99.90;;;;;;5078085;28;20048;-71
2022/06/16 06:46:30;;;;;;;1.25;0.70;;;17.20;99.90;;;;;;5078180;28;20051;-71
2022/06/16 06:48:56;;;;;;;2.40;1.02;;;17.30;99.90;;;;;;5061295;28;20092;-71
2022/06/16 06:51:21;;;;;;;2.40;0.93;;;17.40;99.90;;;;;;5077920;28;20048;-70
2022/06/16 06:53:47;;;;;;;2.97;1.10;;;17.50;99.90;;;;;;5078019;28;20379;-70
2022/06/16 06:56:14;;;;;;;1.45;0.80;;;17.60;99.90;;;;;;5078150;28;20403;-69
2022/06/16 06:58:41;;;;;;;2.13;0.80;;;17.60;99.90;;;;;;5061545;28;20036;-70
2022/06/16 07:01:06;;;;;;;0.85;0.70;;;17.80;99.90;;;;;;5061475;28;20128;-70
2022/06/16 07:03:32;;;;;;;1.23;0.75;;;17.90;99.90;;;;;;5061095;28;20123;-70
2022/06/16 07:06:01;;;;;;;2.83;0.70;;;17.90;99.90;;;;;;5077665;28;20090;-69
2022/06/16 07:08:28;;;;;;;1.80;0.63;;;17.90;99.90;;;;;;5077623;28;20072;-70
2022/06/16 07:10:54;;;;;;;0.77;0.57;;;18.00;99.90;;;;;;5077977;28;20080;-70
2022/06/16 07:13:20;;;;;;;0.90;0.47;;;18.10;99.90;;;;;;5077659;28;20054;-70
2022/06/16 07:15:46;;;;;;;0.57;0.40;;;18.10;99.90;;;;;;5060899;28;20036;-70
2022/06/16 07:18:12;;;;;;;0.43;0.43;;;18.30;99.90;;;;;;5077495;28;20036;-70
2022/06/16 07:20:38;;;;;;;0.40;0.40;;;18.40;99.90;;;;;;5060907;28;20078;-70
2022/06/16 07:23:03;;;;;;;0.52;0.50;;;18.50;99.90;;;;;;5044311;28;20071;-71
2022/06/16 07:25:29;;;;;;;0.80;0.50;;;18.40;99.90;;;;;;5077457;28;20407;-69
2022/06/16 07:27:56;;;;;;;0.57;0.38;;;18.50;99.90;;;;;;5077448;28;20069;-70
2022/06/16 07:30:23;;;;;;;0.40;0.40;;;18.60;99.90;;;;;;5060648;28;20039;-70
2022/06/16 07:32:50;;;;;;;0.50;0.50;;;18.60;99.90;;;;;;5060812;28;20127;-71
2022/06/16 07:35:19;;;;;;;0.63;0.40;;;18.60;99.90;;;;;;5077148;28;20048;-70
2022/06/16 07:37:45;;;;;;;0.95;0.50;;;18.80;99.90;;;;;;5077179;28;20040;-71
2022/06/16 07:40:14;;;;;;;0.50;0.43;;;19.00;99.90;;;;;;5077048;28;20100;-70
2022/06/16 07:42:41;;;;;;;0.75;0.47;;;19.00;99.90;;;;;;5077267;28;20040;-70
2022/06/16 07:45:07;;;;;;;0.52;0.50;;;19.20;99.90;;;;;;5077311;28;20059;-71
2022/06/16 07:47:33;;;;;;;1.45;0.77;;;19.20;99.90;;;;;;5077216;28;20410;-71
2022/06/16 07:50:01;;;;;;;0.60;0.40;;;19.20;99.90;;;;;;5077206;28;20059;-70
2022/06/16 07:52:28;;;;;;;1.55;0.50;;;19.30;99.90;;;;;;5077274;28;20036;-72
2022/06/16 07:54:54;;;;;;;0.40;0.40;;;19.30;99.90;;;;;;5059364;28;20055;-72
2022/06/16 07:57:21;;;;;;;0.40;0.40;;;19.40;99.90;;;;;;5060536;28;20485;-70
2022/06/16 07:59:50;;;;;;;0.40;0.40;;;19.40;99.90;;;;;;5077446;28;20545;-72
2022/06/16 08:02:16;;;;;;;1.08;0.50;;;19.40;99.90;;;;;;5076864;28;20399;-72
2022/06/16 08:04:42;;;;;;;0.70;0.43;;;19.50;99.90;;;;;;5060298;28;20036;-73
2022/06/16 08:07:07;;;;;;;2.13;0.60;;;19.60;99.90;;;;;;5059922;28;20044;-70
2022/06/16 08:09:33;;;;;;;0.63;0.55;;;19.60;99.90;;;;;;5060254;28;20380;-72
2022/06/16 08:12:08;;;;;;;1.00;0.50;;;19.80;99.90;;;;;;5059928;28;20070;-74
2022/06/16 08:14:45;;;;;;;0.73;0.47;;;19.70;99.90;;;;;;5076746;28;20044;-74
2022/06/16 08:17:16;;;;;;;0.55;0.43;;;19.90;99.90;;;;;;5076616;28;20040;-71
2022/06/16 08:19:41;;;;;;;;;;;19.90;99.90;;;;;;5077330;28;20487;-72
2022/06/16 08:22:08;;;;;;;1.13;0.70;;;19.90;99.90;;;;;;5059974;28;19916;-72
2022/06/16 08:24:33;;;;;;;1.42;0.60;;;19.90;99.90;;;;;;5076511;28;20040;-72
2022/06/16 08:27:01;;;;;;;1.25;0.52;;;20.00;99.90;;;;;;5059849;28;20092;-72
2022/06/16 08:29:27;;;;;;;0.52;0.50;;;19.90;99.90;;;;;;5059739;28;20043;-73
2022/06/16 08:31:55;;;;;;;0.60;0.60;;;20.00;99.90;;;;;;5059354;28;20048;-72
2022/06/16 08:34:21;;;;;;;0.80;0.60;;;20.10;99.90;;;;;;5059903;28;20044;-78
2022/06/16 08:36:46;;;;;;;1.75;0.70;;;20.10;99.90;;;;;;5076129;28;20040;-79
2022/06/16 08:39:12;;;;;;;0.75;0.68;;;20.30;99.90;;;;;;5076094;28;20492;-73
2022/06/16 08:41:58;;;;;;;2.30;0.60;;;20.30;99.90;;;;;;5076005;28;20399;-75
2022/06/16 08:44:46;;;;;;;1.85;0.57;;;20.20;99.90;;;;;;5059480;28;20044;-72
2022/06/16 08:47:24;;;;;;;2.88;0.90;;;20.20;99.90;;;;;;5059410;28;20042;-73
2022/06/16 08:50:02;;;;;;;1.60;0.82;;;20.30;99.90;;;;;;5075908;28;20056;-73
2022/06/16 08:52:40;;;;;;;2.35;0.85;;;20.40;99.90;;;;;;5076023;28;20047;-72
2022/06/16 08:55:21;;;;;;;1.33;0.95;;;20.50;99.90;;;;;;5076185;28;20093;-72
2022/06/16 08:58:00;;;;;;;1.50;0.88;;;20.40;99.90;;;;;;5075825;28;20046;-72
2022/06/16 09:00:30;;;;;;;1.63;0.80;;;20.50;99.90;;;;;;5075856;28;20040;-71
2022/06/16 09:03:16;;;;;;;1.20;1.00;;;20.50;99.90;;;;;;5075834;28;20036;-70
2022/06/16 09:06:04;;;;;;;2.13;0.95;;;20.60;99.90;;;;;;5058637;28;20092;-71
2022/06/16 09:08:49;;;;;;;3.63;1.00;;;20.60;99.90;;;;;;5058884;28;20122;-72
2022/06/16 09:11:27;;;;;;;2.00;0.80;;;20.70;99.90;;;;;;5075308;28;20040;-73
2022/06/16 09:14:18;;;;;;;1.92;1.27;;;20.80;99.90;;;;;;5058781;28;20040;-73
2022/06/16 09:17:12;;;;;;;2.83;1.20;;;20.80;99.90;;;;;;5075391;28;20044;-73
2022/06/16 09:19:55;;;;;;;1.42;0.90;;;20.70;99.90;;;;;;5075355;28;20040;-74
2022/06/16 09:22:49;;;;;;;1.63;1.25;;;20.60;99.90;;;;;;5058437;28;20093;-73
2022/06/16 09:25:39;;;;;;;2.25;1.10;;;20.80;99.90;;;;;;5075423;28;20098;-73
2022/06/16 09:28:15;;;;;;;2.00;1.00;;;21.00;99.90;;;;;;5075201;28;20050;-73
2022/06/16 09:30:43;;;;;;;2.17;0.95;;;21.00;99.90;;;;;;5074997;28;20052;-73
2022/06/16 09:33:23;;;;;;;2.53;1.20;;;21.00;99.90;;;;;;5041750;28;20071;-73
2022/06/16 09:35:58;;;;;;;1.48;0.90;;;21.00;99.90;;;;;;5075284;28;20042;-73
2022/06/16 09:38:37;;;;;;;1.50;1.08;;;21.10;99.90;;;;;;5058180;28;20123;-73
2022/06/16 09:44:06;;;;;;;1.38;1.10;;;21.20;99.90;;;;;;5074716;28;20044;-73
2022/06/16 09:46:38;;;;;;;1.33;1.02;;;21.20;99.90;;;;;;5075164;28;20050;-72
2022/06/16 09:49:06;;;;;;;3.00;1.20;;;21.40;99.90;;;;;;5074827;28;20055;-73
2022/06/16 09:51:44;;;;;;;1.95;1.10;;;21.90;99.90;;;;;;5058013;28;20048;-72
2022/06/16 09:54:16;;;;;;;2.50;1.30;;;21.40;99.90;;;;;;5074831;28;20044;-73
2022/06/16 09:56:51;;;;;;;1.77;1.17;;;21.60;99.90;;;;;;5058286;28;20402;-73
2022/06/16 09:59:20;;;;;;;2.20;1.02;;;21.70;99.90;;;;;;5074553;28;20032;-74
2022/06/16 10:02:02;;;;;;;3.75;1.23;;;21.50;99.90;;;;;;5058034;28;20131;-75
2022/06/16 10:04:28;;;;;;;1.50;1.10;;;21.50;99.90;;;;;;5074305;28;20050;-74
2022/06/16 10:07:42;;;;;;;3.03;1.00;;;21.50;99.90;;;;;;5057958;28;20340;-75
2022/06/16 10:10:22;;;;;;;4.20;1.23;;;21.60;99.90;;;;;;5036912;28;20058;-76
2022/06/16 10:13:13;;;;;;;1.97;1.10;;;21.30;99.90;;;;;;5057835;28;20109;-74
2022/06/16 10:15:54;;;;;;;3.53;0.98;;;21.40;99.90;;;;;;5058110;28;20377;-73
2022/06/16 10:18:21;;;;;;;2.58;1.20;;;21.60;99.90;;;;;;5073800;28;20043;-74
2022/06/16 10:20:46;;;;;;;3.90;1.33;;;21.70;99.90;;;;;;5074346;28;20404;-74
2022/06/16 10:23:16;;;;;;;2.13;1.00;;;21.80;99.90;;;;;;5057585;28;20048;-75
2022/06/16 10:25:54;;;;;;;5.65;1.50;;;21.80;99.90;;;;;;5074814;28;20036;-73
2022/06/16 10:28:35;;;;;;;2.90;1.42;;;21.60;99.90;;;;;;5074669;28;20081;-71
2022/06/16 10:31:03;;;;;;;1.85;1.40;;;21.60;99.90;;;;;;5057925;28;20048;-71
2022/06/16 10:33:33;;;;;;;4.32;1.80;;;21.70;99.90;;;;;;5074291;28;20090;-72
2022/06/16 10:36:12;;;;;;;2.80;1.48;;;21.60;99.90;;;;;;5057727;28;20032;-70
2022/06/16 10:38:41;;;;;;;2.92;1.60;;;21.50;99.90;;;;;;5057611;28;20086;-70
2022/06/16 10:41:24;;;;;;;2.03;1.45;;;21.60;99.90;;;;;;5074089;28;20036;-70
2022/06/16 10:43:53;;;;;;;1.90;1.30;;;21.70;99.90;;;;;;5074100;28;20044;-71
2022/06/16 10:46:45;;;;;;;2.17;1.27;;;21.60;99.90;;;;;;5057541;28;20040;-70
2022/06/16 10:49:25;;;;;;;2.35;1.45;;;21.70;99.90;;;;;;5073867;28;20056;-70
2022/06/16 10:52:14;;;;;;;2.50;1.85;;;21.70;99.90;;;;;;5073957;28;20442;-71
2022/06/16 10:54:54;;;;;;;1.80;1.35;;;21.70;99.90;;;;;;5074140;28;20040;-72
2022/06/16 10:57:26;;;;;;;2.72;1.55;;;21.60;99.90;;;;;;5073882;28;20118;-73
2022/06/16 11:00:02;;;;;;;2.15;1.30;;;21.60;99.90;;;;;;5073853;28;20561;-70
2022/06/16 11:02:32;;;;;;;3.78;1.73;;;21.40;99.90;;;;;;5073886;28;20055;-70
2022/06/16 11:05:11;;;;;;;2.23;1.30;;;21.70;99.90;;;;;;5073964;28;20040;-70
2022/06/16 11:07:39;;;;;;;3.53;1.67;;;21.70;99.90;;;;;;5073919;28;20282;-70
2022/06/16 11:10:27;;;;;;;1.33;0.90;;;21.90;99.90;;;;;;5057232;28;20047;-70
2022/06/16 11:12:53;;;;;;;4.45;1.70;;;21.90;99.90;;;;;;5057230;28;20051;-71
2022/06/16 11:15:25;;;;;;;2.08;1.40;;;22.00;99.90;;;;;;5040549;28;20043;-70
2022/06/16 11:17:55;;;;;;;2.05;1.20;;;21.90;99.90;;;;;;5057284;28;20483;-74
2022/06/16 11:20:39;;;;;;;1.75;1.35;;;21.90;99.90;;;;;;5073800;28;20036;-74
2022/06/16 11:23:30;;;;;;;5.38;1.50;;;21.90;99.90;;;;;;5073762;28;20036;-75
2022/06/16 11:26:17;;;;;;;2.60;1.30;;;22.00;99.90;;;;;;5038037;28;20058;-71
2022/06/16 11:28:55;;;;;;;3.72;1.48;;;22.00;99.90;;;;;;5075103;28;20100;-71
2022/06/16 11:31:25;;;;;;;4.50;1.40;;;22.00;99.90;;;;;;5077119;28;20043;-71
2022/06/16 11:34:16;;;;;;;4.17;1.50;;;22.00;99.90;;;;;;5060984;28;20032;-71
2022/06/16 11:36:48;;;;;;;1.98;1.20;;;21.90;99.90;;;;;;5063654;28;20044;-71
2022/06/16 11:39:52;;;;;;;1.55;1.20;;;22.00;99.90;;;;;;5077370;28;20075;-71
2022/06/16 11:42:45;;;;;;;2.33;1.27;;;22.00;99.90;;;;;;5077029;28;20044;-72
2022/06/16 11:45:33;;;;;;;1.75;1.10;;;22.00;99.90;;;;;;5060477;28;20048;-71
2022/06/16 11:48:23;;;;;;;1.92;1.02;;;22.10;99.90;;;;;;5077118;28;20109;-72
2022/06/16 11:51:13;;;;;;;1.83;1.23;;;22.10;99.90;;;;;;5077030;28;20064;-72
2022/06/16 11:54:04;;;;;;;2.67;1.33;;;22.30;99.90;;;;;;5077036;28;20131;-71
2022/06/16 11:56:33;;;;;;;2.13;1.40;;;22.40;99.90;;;;;;5060465;28;20036;-73
2022/06/16 11:59:30;;;;;;;1.17;0.98;;;22.40;99.90;;;;;;5077042;28;20404;-72
2022/06/16 12:02:20;;;;;;;1.90;1.40;;;22.60;99.90;;;;;;5076660;28;20087;-72
2022/06/16 12:05:17;;;;;;;2.60;1.55;;;22.80;99.90;;;;;;5060370;28;20126;-73
2022/06/16 12:08:07;;;;;;;2.83;1.20;;;22.70;99.90;;;;;;5077005;28;20044;-73
2022/06/16 12:10:40;;;;;;;2.63;1.42;;;22.70;99.90;;;;;;5076708;28;20050;-73
2022/06/16 12:13:15;;;;;;;2.67;1.25;;;;;;;;;;5076482;28;20040;-73
2022/06/16 12:16:00;;;;;;;2.40;1.40;;;22.80;99.90;;;;;;5076538;28;20036;-73
2022/06/16 12:18:35;;;;;;;1.27;0.80;;;;;;;;;;5059639;28;20141;-73
2022/06/16 12:21:22;;;;;;;1.48;1.00;;;22.90;99.90;;;;;;5076501;28;20044;-72
2022/06/16 12:23:50;;;;;;;3.92;0.82;;;22.90;99.90;;;;;;5076294;28;20067;-73
2022/06/16 12:26:38;;;;;;;5.28;1.45;;;23.00;99.90;;;;;;5076280;28;20122;-73
2022/06/16 12:29:25;;;;;;;1.70;1.10;;;23.00;99.90;;;;;;5076553;28;20040;-73
2022/06/16 12:32:12;;;;;;;1.10;0.93;;;23.10;99.90;;;;;;5076156;28;20432;-73
2022/06/16 12:35:01;;;;;;;1.85;1.13;;;23.20;99.90;;;;;;5059427;28;20036;-73
2022/06/16 12:37:31;;;;;;;1.38;1.17;;;23.10;99.90;;;;;;5075864;28;20032;-73
2022/06/16 12:40:32;;;;;;;2.30;1.30;;;23.20;99.90;;;;;;5075535;28;20084;-73
2022/06/16 12:43:04;;;;;;;2.33;1.20;;;23.10;99.90;;;;;;5059147;28;20051;-73
2022/06/16 12:45:43;;;;;;;1.83;1.35;;;23.20;99.90;;;;;;5076210;28;20081;-73
2022/06/16 12:48:20;;;;;;;2.05;1.40;;;23.10;99.90;;;;;;5076098;28;20043;-72
2022/06/16 12:50:51;;;;;;;1.50;1.38;;;23.30;99.90;;;;;;5075963;28;20395;-72
2022/06/16 12:53:49;;;;;;;3.28;1.08;;;23.40;99.90;;;;;;5075935;28;20048;-73
2022/06/16 12:56:34;;;;;;;2.13;1.25;;;23.40;99.90;;;;;;5075932;28;20040;-73
2022/06/16 12:59:12;;;;;;;2.20;1.25;;;23.50;99.90;;;;;;5076358;28;20048;-72
2022/06/16 13:01:39;;;;;;;2.00;0.98;;;23.50;99.90;;;;;;5075845;28;20055;-72
2022/06/16 13:04:11;;;;;;;2.50;1.50;;;23.30;99.90;;;;;;5042452;28;20044;-72
2022/06/16 13:06:38;;;;;;;1.20;1.02;;;23.30;99.90;;;;;;5058845;28;20043;-73
2022/06/16 13:09:10;;;;;;;3.25;1.42;;;23.20;99.90;;;;;;5075716;28;20039;-73
2022/06/16 13:12:05;;;;;;;1.70;1.38;;;22.90;99.90;;;;;;5075362;28;20047;-73
2022/06/16 13:14:37;;;;;;;2.08;1.23;;;22.70;99.90;;;;;;5062536;28;20044;-73
2022/06/16 13:17:06;;;;;;;1.40;1.00;;;22.60;99.90;;;;;;5075320;28;20071;-73
2022/06/16 13:19:55;;;;;;;3.80;1.27;;;22.70;99.90;;;;;;5075408;28;20184;-72
2022/06/16 13:22:36;;;;;;;1.83;1.30;;;22.90;99.90;;;;;;5075111;28;20131;-73
2022/06/16 13:25:25;;;;;;;2.17;1.30;;;23.20;99.90;;;;;;5075472;28;20051;-73
2022/06/16 13:27:55;;;;;;;1.45;1.20;;;23.30;99.90;;;;;;5075260;28;20086;-73
2022/06/16 13:30:30;;;;;;;1.40;1.15;;;23.40;99.90;;;;;;5058885;28;20044;-72
2022/06/16 13:33:08;;;;;;;1.67;1.00;;;23.50;99.90;;;;;;5074950;28;20048;-73
2022/06/16 13:35:40;;;;;;;3.30;1.30;;;23.50;99.90;;;;;;5074825;28;20465;-73
2022/06/16 13:38:05;;;;;;;3.75;1.02;;;23.40;99.90;;;;;;5058671;28;20399;-72